Maimara, Argentina
Current Conditions -  °F | °C
As of 11:00 PM on Friday 21 Nov 2014 (Local Time) from SASJ Reporting Station
Overcast Overcast  
Wind Chill: 64°   Ceiling: 10000
Heat Index: 64°   Visibility: 6mi
Dew Point: 57°   Wind: 6mph
Humidity: 77%   Direction: 290°WNW
Pressure: 30.06"   Gusts: NA
Location:  23.62°S, 65.4°W
Report Text: SASJ 220200Z 29005KT 9999 SCT025 OVC10018/14 Q1018
Loading
Personal Weather Stations






























Interactive Weather Map New forecast layout! Learn more

10-Day Weather Forecast

Advertisements
Track Severe Weather on mobile